Hoboken, Belgium
Current Conditions -  °F | °C
As of 1:50 PM on Wednesday 26 Nov 2014 (Local Time) from EBAW Reporting Station
Broken Clouds Broken Clouds  
Wind Chill:   Ceiling: 1600
Heat Index:   Visibility: 4mi
Dew Point:   Wind: 9mph
Humidity: 87%   Direction: 100°E
Pressure: 29.88"   Gusts: NA
Location:  51.18°N, 4.35°E
Report Text: EBAW 261250Z 10008KT 6000 BKN016 07/05 Q1012 BECMG SCT008 BKN012
Loading
Personal Weather Stations






























Interactive Weather Map New forecast layout! Learn more

10-Day Weather Forecast

Advertisements
Track Severe Weather on mobile